createdAt,value
2023-05-13T00:00:00.513Z,99330.56
2023-05-13T00:02:27.360Z,99327.00
2023-05-13T00:04:53.973Z,99340.19
2023-05-13T00:07:20.518Z,99344.56
2023-05-13T00:09:47.098Z,99360.25
2023-05-13T00:12:13.839Z,99371.78
2023-05-13T00:14:40.806Z,99389.34
2023-05-13T00:17:07.517Z,99377.25
2023-05-13T00:19:34.084Z,99382.59
2023-05-13T00:22:00.688Z,99393.91
2023-05-13T00:24:27.666Z,99408.75
2023-05-13T00:26:54.250Z,99403.56
2023-05-13T00:29:20.837Z,99415.03
2023-05-13T00:31:47.496Z,99420.31
2023-05-13T00:34:14.257Z,99437.88
2023-05-13T00:36:40.839Z,99431.81
2023-05-13T00:39:07.795Z,99451.91
2023-05-13T00:41:34.405Z,99457.16
2023-05-13T00:44:01.150Z,99472.00
2023-05-13T00:46:30.709Z,99458.19
2023-05-13T00:48:57.314Z,99473.03
2023-05-13T00:51:23.961Z,99487.09
2023-05-13T00:53:51.419Z,99490.56
2023-05-13T00:56:24.501Z,99498.53
2023-05-13T00:58:51.044Z,99507.22
2023-05-13T01:01:36.418Z,99506.41
2023-05-13T01:04:09.280Z,99522.88
2023-05-13T01:06:35.811Z,99536.06
2023-05-13T01:09:08.966Z,99533.47
2023-05-13T01:11:37.699Z,99527.44
2023-05-13T01:14:11.726Z,99543.97
2023-05-13T01:16:53.405Z,99544.00
2023-05-13T01:19:42.996Z,99542.31
2023-05-13T01:22:09.805Z,99574.59
2023-05-13T01:24:36.445Z,99543.22
2023-05-13T01:27:03.182Z,99563.22
2023-05-13T01:29:30.334Z,99556.28
2023-05-13T01:31:57.854Z,99565.06
2023-05-13T01:34:25.729Z,99573.66
2023-05-13T01:36:52.354Z,99580.66
2023-05-13T01:39:19.448Z,99602.47
2023-05-13T01:41:46.086Z,99574.72
2023-05-13T01:44:12.670Z,99586.06
2023-05-13T01:46:39.330Z,99581.72
2023-05-13T01:49:07.831Z,99599.16
2023-05-13T01:51:34.445Z,99606.97
2023-05-13T01:54:01.264Z,99612.25
2023-05-13T01:56:27.885Z,99631.41
2023-05-13T01:58:54.455Z,99645.31
2023-05-13T02:01:22.583Z,99633.19
2023-05-13T02:03:49.997Z,99663.66
2023-05-13T02:06:17.012Z,99661.09
2023-05-13T02:08:43.654Z,99663.81
2023-05-13T02:11:10.276Z,99662.97
2023-05-13T02:13:36.864Z,99651.75
2023-05-13T02:16:03.616Z,99681.31
2023-05-13T02:18:30.523Z,99701.44
2023-05-13T02:20:57.663Z,99715.56
2023-05-13T02:23:24.353Z,99732.06
2023-05-13T02:25:50.917Z,99719.97
2023-05-13T02:28:17.569Z,99730.41
2023-05-13T02:30:44.132Z,99743.47
2023-05-13T02:33:10.783Z,99735.66
2023-05-13T02:35:37.382Z,99746.16
2023-05-13T02:38:06.923Z,99772.22
2023-05-13T02:40:33.450Z,99768.75
2023-05-13T02:43:00.050Z,99773.06
2023-05-13T02:45:26.690Z,99777.41
2023-05-13T02:47:53.377Z,99794.72
2023-05-13T02:50:20.234Z,99796.50
2023-05-13T02:52:47.018Z,99800.84
2023-05-13T02:55:13.590Z,99805.16
2023-05-13T02:57:40.208Z,99795.63
2023-05-13T03:00:07.034Z,99814.66
2023-05-13T03:02:34.089Z,99821.53
2023-05-13T03:05:00.804Z,99819.78
2023-05-13T03:07:27.399Z,99837.13
2023-05-13T03:09:54.129Z,99824.03
2023-05-13T03:12:20.973Z,99819.63
2023-05-13T03:14:47.554Z,99826.56
2023-05-13T03:17:14.197Z,99828.25
2023-05-13T03:19:40.711Z,99835.19
2023-05-13T03:22:07.296Z,99833.41
2023-05-13T03:24:33.874Z,99823.81
2023-05-13T03:27:00.895Z,99825.53
2023-05-13T03:29:27.434Z,99821.09
2023-05-13T03:31:54.435Z,99839.38
2023-05-13T03:34:21.097Z,99847.13
2023-05-13T03:36:47.828Z,99845.34
2023-05-13T03:39:14.412Z,99833.19
2023-05-13T03:41:41.025Z,99843.59
2023-05-13T03:44:07.681Z,99852.16
2023-05-13T03:46:34.344Z,99848.69
2023-05-13T03:49:00.925Z,99852.97
2023-05-13T03:51:27.587Z,99855.44
2023-05-13T03:53:54.158Z,99860.53
2023-05-13T03:56:21.653Z,99867.38
2023-05-13T03:58:48.418Z,99857.72
2023-05-13T04:01:15.038Z,99880.41
2023-05-13T04:03:44.248Z,99869.13
2023-05-13T04:06:11.052Z,99875.94
2023-05-13T04:08:37.617Z,99881.06
2023-05-13T04:11:04.210Z,99881.13
2023-05-13T04:13:30.902Z,99882.84
2023-05-13T04:15:58.115Z,99885.44
2023-05-13T04:18:24.712Z,99882.75
2023-05-13T04:20:51.256Z,99887.88
2023-05-13T04:23:17.828Z,99878.25
2023-05-13T04:25:50.244Z,99886.94
2023-05-13T04:28:18.119Z,99879.03
2023-05-13T04:30:44.836Z,99882.41
2023-05-13T04:33:11.784Z,99880.59
2023-05-13T04:35:38.446Z,99897.81
2023-05-13T04:38:05.388Z,99901.16
2023-05-13T04:40:32.010Z,99878.41
2023-05-13T04:42:58.619Z,99887.00
2023-05-13T04:45:25.241Z,99885.97
2023-05-13T04:47:51.866Z,99881.59
2023-05-13T04:50:18.597Z,99891.91
2023-05-13T04:52:47.285Z,99886.63
2023-05-13T04:55:14.029Z,99877.00
2023-05-13T04:57:40.791Z,99877.75
2023-05-13T05:00:09.461Z,99868.84
2023-05-13T05:02:36.177Z,99872.28
2023-05-13T05:05:02.777Z,99878.31
2023-05-13T05:07:30.409Z,99874.72
2023-05-13T05:09:56.991Z,99871.06
2023-05-13T05:12:23.522Z,99869.31
2023-05-13T05:14:50.084Z,99861.38
2023-05-13T05:17:16.712Z,99853.41
2023-05-13T05:19:43.314Z,99861.81
2023-05-13T05:22:09.885Z,99858.28
2023-05-13T05:24:36.412Z,99843.34
2023-05-13T05:27:03.026Z,99843.19
2023-05-13T05:29:29.654Z,99847.56
2023-05-13T05:31:56.423Z,99845.75
2023-05-13T05:34:23.052Z,99838.75
2023-05-13T05:36:49.603Z,99836.84
2023-05-13T05:39:16.180Z,99837.59
2023-05-13T05:41:42.757Z,99834.91
2023-05-13T05:44:09.378Z,99827.72
2023-05-13T05:46:36.028Z,99826.63
2023-05-13T05:49:03.690Z,99823.03
2023-05-13T05:51:30.496Z,99816.94
2023-05-13T05:53:57.029Z,99811.56
2023-05-13T05:56:23.557Z,99798.72
2023-05-13T05:58:50.082Z,99806.47
2023-05-13T06:01:16.711Z,99795.75
2023-05-13T06:03:43.330Z,99773.59
2023-05-13T06:06:09.937Z,99773.38
2023-05-13T06:08:36.483Z,99753.03
2023-05-13T06:11:03.089Z,99745.75
2023-05-13T06:13:29.705Z,99732.50
2023-05-13T06:15:56.338Z,99688.78
2023-05-13T06:18:23.075Z,99684.22
2023-05-13T06:20:49.718Z,99675.44
2023-05-13T06:23:16.819Z,99676.03
2023-05-13T06:25:43.435Z,99678.31
2023-05-13T06:28:11.219Z,99643.91
2023-05-13T06:30:38.696Z,99596.34
2023-05-13T06:33:05.567Z,99598.38
2023-05-13T06:35:32.327Z,99579.81
2023-05-13T06:37:58.946Z,99568.16
2023-05-13T06:40:25.573Z,99550.78
2023-05-13T06:42:52.152Z,99533.75
2023-05-13T06:45:23.133Z,99538.75
2023-05-13T06:47:53.395Z,99503.72
2023-05-13T06:50:20.453Z,99506.13
2023-05-13T06:52:47.288Z,99510.34
2023-05-13T06:55:13.921Z,99503.84
2023-05-13T06:57:43.306Z,99473.34
2023-05-13T07:00:10.566Z,99471.50
2023-05-13T07:02:37.152Z,99467.94
2023-05-13T07:05:03.819Z,99466.78
2023-05-13T07:07:30.539Z,99462.28
2023-05-13T07:09:57.188Z,99439.81
2023-05-13T07:12:23.829Z,99457.13
2023-05-13T07:14:50.414Z,99451.47
2023-05-13T07:17:17.591Z,99439.81
2023-05-13T07:19:44.278Z,99441.75
2023-05-13T07:22:11.495Z,99424.72
2023-05-13T07:24:38.584Z,99413.09
2023-05-13T07:27:05.283Z,99394.66
2023-05-13T07:29:32.470Z,99388.19
2023-05-13T07:32:03.283Z,99383.78
2023-05-13T07:34:29.945Z,99398.28
2023-05-13T07:36:56.464Z,99353.72
2023-05-13T07:39:23.155Z,99350.31
2023-05-13T07:41:50.154Z,99336.50
2023-05-13T07:44:16.715Z,99373.41
2023-05-13T07:46:43.251Z,99356.78
2023-05-13T07:49:09.884Z,99331.94
2023-05-13T07:51:36.524Z,99329.69
2023-05-13T07:54:03.100Z,99327.31
2023-05-13T07:56:30.360Z,99317.59
2023-05-13T07:58:57.563Z,99318.38
2023-05-13T08:01:24.136Z,99300.81
2023-05-13T08:03:50.923Z,99315.63
2023-05-13T08:06:17.696Z,99323.09
2023-05-13T08:08:44.255Z,99312.75
2023-05-13T08:11:11.121Z,99323.09
2023-05-13T08:13:38.540Z,99329.78
2023-05-13T08:16:07.238Z,99339.88
2023-05-13T08:18:33.923Z,99345.72
2023-05-13T08:21:00.675Z,99311.50
2023-05-13T08:23:40.440Z,99298.78
2023-05-13T08:26:11.668Z,99283.00
2023-05-13T08:28:38.234Z,99240.69
2023-05-13T08:31:04.941Z,99262.22
2023-05-13T08:33:31.797Z,99228.06
2023-05-13T08:35:59.452Z,99230.09
2023-05-13T08:38:26.356Z,99202.78
2023-05-13T08:40:53.020Z,99182.38
2023-05-13T08:43:20.045Z,99190.88
2023-05-13T08:45:47.928Z,99212.72
2023-05-13T08:48:18.714Z,99161.81
2023-05-13T08:50:45.777Z,99130.59
2023-05-13T08:53:13.131Z,99117.50
2023-05-13T08:55:42.869Z,99095.16
2023-05-13T08:58:09.458Z,99080.00
2023-05-13T09:00:36.221Z,99094.69
2023-05-13T09:03:03.008Z,99090.91
2023-05-13T09:05:32.040Z,99114.56
2023-05-13T09:07:58.908Z,99099.63
2023-05-13T09:10:25.519Z,99089.34
2023-05-13T09:12:52.921Z,99097.25
2023-05-13T09:15:20.692Z,99105.28
2023-05-13T09:17:48.725Z,99061.84
2023-05-13T09:20:16.387Z,99044.19
2023-05-13T09:22:46.116Z,99030.44
2023-05-13T09:25:14.042Z,99014.66
2023-05-13T09:27:42.769Z,98999.88
2023-05-13T09:30:10.084Z,99007.19
2023-05-13T09:32:36.766Z,98998.50
2023-05-13T09:35:19.433Z,98993.78
2023-05-13T09:37:47.341Z,98973.06
2023-05-13T09:40:15.110Z,98974.06
2023-05-13T09:42:44.845Z,98984.59
2023-05-13T09:45:12.498Z,98982.31
2023-05-13T09:47:39.854Z,98991.50
2023-05-13T09:50:08.056Z,98989.53
2023-05-13T09:52:35.902Z,98995.66
2023-05-13T09:55:04.753Z,98993.13
2023-05-13T09:57:32.402Z,98988.03
2023-05-13T09:59:59.996Z,98987.94
2023-05-13T10:02:27.031Z,98977.63
2023-05-13T10:04:55.330Z,98963.78
2023-05-13T10:07:24.698Z,98972.47
2023-05-13T10:09:57.452Z,98954.69
2023-05-13T10:12:27.136Z,98913.97
2023-05-13T10:14:55.991Z,98880.66
2023-05-13T10:17:23.879Z,98855.81
2023-05-13T10:19:51.335Z,98775.19
2023-05-13T10:22:31.476Z,98762.19
2023-05-13T10:24:59.047Z,98748.41
2023-05-13T10:27:29.674Z,98722.97
2023-05-13T10:29:57.459Z,98661.34
2023-05-13T10:32:28.033Z,98650.44
2023-05-13T10:35:10.690Z,98638.75
2023-05-13T10:37:50.384Z,98601.16
2023-05-13T10:40:32.904Z,98526.63
2023-05-13T10:43:02.371Z,98492.34
2023-05-13T10:45:32.174Z,98504.31
2023-05-13T10:48:05.379Z,98416.38
2023-05-13T10:50:32.091Z,98392.84
2023-05-13T10:52:58.759Z,98379.53
2023-05-13T10:55:26.409Z,98377.03
2023-05-13T10:58:08.377Z,98390.91
2023-05-13T11:00:35.829Z,98375.06
2023-05-13T11:03:09.279Z,98374.81
2023-05-13T11:05:38.953Z,98347.50
2023-05-13T11:08:05.511Z,98354.50
2023-05-13T11:10:32.330Z,98364.16
2023-05-13T11:13:09.155Z,98374.03
2023-05-13T11:15:51.881Z,98338.13
2023-05-13T11:18:18.629Z,98338.22
2023-05-13T11:20:52.531Z,98345.50
2023-05-13T11:23:21.798Z,98338.00
2023-05-13T11:26:10.048Z,98278.34
2023-05-13T11:28:53.621Z,98281.81
2023-05-13T11:31:21.543Z,98239.56
2023-05-13T11:34:06.525Z,98161.72
2023-05-13T11:36:33.785Z,98156.19
2023-05-13T11:39:13.965Z,98155.66
2023-05-13T11:41:41.766Z,98122.94
2023-05-13T11:44:08.953Z,98141.75
2023-05-13T11:46:36.371Z,98139.97
2023-05-13T11:49:05.896Z,98165.09
2023-05-13T11:51:34.355Z,98191.44
2023-05-13T11:54:02.017Z,98203.81
2023-05-13T11:56:28.747Z,98214.47
2023-05-13T11:58:56.248Z,98185.75
2023-05-13T12:01:22.917Z,98175.91
2023-05-13T12:03:49.524Z,98140.13
2023-05-13T12:06:16.308Z,98126.31
2023-05-13T12:08:43.476Z,98140.91
2023-05-13T12:11:13.105Z,98151.91
2023-05-13T12:13:41.174Z,98128.59
2023-05-13T12:16:08.296Z,98143.00
2023-05-13T12:18:34.891Z,98136.59
2023-05-13T12:21:13.159Z,98105.22
2023-05-13T12:23:41.005Z,97954.78
2023-05-13T12:26:07.899Z,97863.78
2023-05-13T12:28:34.483Z,97862.78
2023-05-13T12:31:05.932Z,97901.25
2023-05-13T12:33:43.116Z,97936.91
2023-05-13T12:36:20.543Z,97950.09
2023-05-13T12:39:00.140Z,97985.78
2023-05-13T12:41:28.968Z,97967.00
2023-05-13T12:43:57.258Z,97915.91
2023-05-13T12:46:24.604Z,97930.69
2023-05-13T12:48:58.394Z,97975.91
2023-05-13T12:51:25.215Z,98015.03
2023-05-13T12:53:54.206Z,98045.88
2023-05-13T12:56:22.396Z,98054.72
2023-05-13T12:58:49.821Z,98041.16
2023-05-13T13:01:16.900Z,98024.16
2023-05-13T13:03:43.811Z,97973.31
2023-05-13T13:06:10.539Z,97983.63
2023-05-13T13:08:37.459Z,97947.41
2023-05-13T13:11:04.411Z,97978.75
2023-05-13T13:13:31.626Z,97995.44
2023-05-13T13:15:58.723Z,97986.22
2023-05-13T13:18:25.838Z,98018.34
2023-05-13T13:20:53.000Z,97961.59
2023-05-13T13:23:20.138Z,97936.72
2023-05-13T13:25:47.023Z,97964.09
2023-05-13T13:28:13.548Z,97996.63
2023-05-13T13:30:46.185Z,97992.75
2023-05-13T13:33:14.097Z,98012.50
2023-05-13T13:35:41.066Z,97974.63
2023-05-13T13:38:08.361Z,97964.00
2023-05-13T13:40:36.167Z,97975.31
2023-05-13T13:43:06.817Z,97979.06
2023-05-13T13:45:33.724Z,97983.38
2023-05-13T13:48:00.466Z,97985.00
2023-05-13T13:50:27.253Z,97992.09
2023-05-13T13:52:53.872Z,98000.13
2023-05-13T13:55:21.015Z,97988.44
2023-05-13T13:57:47.769Z,97992.75
2023-05-13T14:00:15.087Z,98015.81
2023-05-13T14:02:42.275Z,98028.41
2023-05-13T14:05:09.343Z,98057.28
2023-05-13T14:07:36.895Z,98056.03
2023-05-13T14:10:04.143Z,98049.69
2023-05-13T14:12:31.203Z,98046.41
2023-05-13T14:14:58.729Z,98045.91
2023-05-13T14:17:25.396Z,98062.31
2023-05-13T14:19:54.191Z,98034.66
2023-05-13T14:22:22.488Z,98032.75
2023-05-13T14:24:49.238Z,98048.69
2023-05-13T14:27:15.975Z,98046.84
2023-05-13T14:29:42.611Z,98048.09
2023-05-13T14:32:09.200Z,98055.72
2023-05-13T14:34:35.813Z,98015.31
2023-05-13T14:37:02.424Z,97996.81
2023-05-13T14:39:30.201Z,97967.41
2023-05-13T14:41:56.777Z,98001.94
2023-05-13T14:44:23.420Z,98026.63
2023-05-13T14:46:50.456Z,98043.53
2023-05-13T14:49:17.080Z,98080.00
2023-05-13T14:51:43.919Z,98070.34
2023-05-13T14:54:10.453Z,98054.84
2023-05-13T14:56:37.876Z,98101.69
2023-05-13T14:59:04.462Z,98136.19
2023-05-13T15:01:31.153Z,98170.63
2023-05-13T15:03:59.627Z,98206.09
2023-05-13T15:06:26.871Z,98223.41
2023-05-13T15:08:53.734Z,98235.03
2023-05-13T15:11:20.993Z,98250.72
2023-05-13T15:13:47.582Z,98245.34
2023-05-13T15:16:14.215Z,98258.97
2023-05-13T15:18:41.049Z,98268.34
2023-05-13T15:21:07.772Z,98282.34
2023-05-13T15:23:34.356Z,98302.06
2023-05-13T15:26:00.895Z,98320.78
2023-05-13T15:28:29.257Z,98327.09
2023-05-13T15:30:56.272Z,98348.22
2023-05-13T15:33:22.912Z,98375.56
2023-05-13T15:35:49.682Z,98405.19
2023-05-13T15:38:16.939Z,98405.59
2023-05-13T15:40:43.500Z,98410.47
2023-05-13T15:43:10.287Z,98416.69
2023-05-13T15:45:37.823Z,98415.22
2023-05-13T15:48:04.621Z,98439.94
2023-05-13T15:50:31.228Z,98455.28
2023-05-13T15:52:57.832Z,98490.31
2023-05-13T15:55:24.489Z,98501.31
2023-05-13T15:57:51.071Z,98530.31
2023-05-13T16:00:17.932Z,98533.38
2023-05-13T16:02:44.754Z,98529.94
2023-05-13T16:05:15.731Z,98552.25
2023-05-13T16:07:42.583Z,98564.41
2023-05-13T16:10:09.694Z,98575.63
2023-05-13T16:12:36.796Z,98583.44
2023-05-13T16:15:03.952Z,98598.13
2023-05-13T16:17:31.344Z,98592.75
2023-05-13T16:19:58.050Z,98603.31
2023-05-13T16:22:24.597Z,98624.41
2023-05-13T16:24:51.145Z,98642.72
2023-05-13T16:27:17.751Z,98662.38
2023-05-13T16:29:44.323Z,98665.28
2023-05-13T16:32:12.259Z,98679.34
2023-05-13T16:34:38.836Z,98686.59
2023-05-13T16:37:05.463Z,98700.81
2023-05-13T16:39:32.117Z,98708.63
2023-05-13T16:41:58.920Z,98720.00
2023-05-13T16:44:25.534Z,98724.09
2023-05-13T16:46:52.126Z,98742.06
2023-05-13T16:49:18.919Z,98738.00
2023-05-13T16:51:45.618Z,98738.84
2023-05-13T16:54:12.152Z,98762.28
2023-05-13T16:56:39.077Z,98793.47
2023-05-13T16:59:08.824Z,98803.25
2023-05-13T17:01:36.216Z,98814.22
2023-05-13T17:04:02.790Z,98812.91
2023-05-13T17:06:29.359Z,98843.38
2023-05-13T17:08:55.940Z,98860.31
2023-05-13T17:11:22.546Z,98867.56
2023-05-13T17:13:49.181Z,98903.97
2023-05-13T17:16:15.934Z,98926.94
2023-05-13T17:18:42.516Z,98938.38
2023-05-13T17:21:09.108Z,98943.44
2023-05-13T17:23:35.859Z,98949.25
2023-05-13T17:26:02.480Z,98966.19
2023-05-13T17:28:29.080Z,98985.72
2023-05-13T17:30:55.890Z,99000.16
2023-05-13T17:33:23.262Z,99009.25
2023-05-13T17:35:49.967Z,99075.50
2023-05-13T17:38:16.542Z,99087.41
2023-05-13T17:40:43.084Z,99085.53
2023-05-13T17:43:10.020Z,99113.13
2023-05-13T17:45:36.770Z,99133.78
2023-05-13T17:48:04.227Z,99133.78
2023-05-13T17:50:32.031Z,99119.25
2023-05-13T17:52:59.887Z,99139.34
2023-05-13T17:55:26.517Z,99139.50
2023-05-13T17:57:55.526Z,99161.97
2023-05-13T18:00:23.840Z,99189.19
2023-05-13T18:02:50.712Z,99189.19
2023-05-13T18:05:17.376Z,99205.47
2023-05-13T18:07:44.070Z,99214.44
2023-05-13T18:10:10.817Z,99196.25
2023-05-13T18:12:37.383Z,99216.75
2023-05-13T18:15:04.345Z,99229.31
2023-05-13T18:17:32.689Z,99225.34
2023-05-13T18:19:59.242Z,99257.13
2023-05-13T18:22:25.925Z,99265.16
2023-05-13T18:24:52.507Z,99277.53
2023-05-13T18:27:19.117Z,99279.25
2023-05-13T18:29:46.470Z,99282.94
2023-05-13T18:32:13.027Z,99298.38
2023-05-13T18:34:39.872Z,99309.84
2023-05-13T18:37:06.536Z,99331.97
2023-05-13T18:39:33.192Z,99329.59
2023-05-13T18:41:59.801Z,99338.69
2023-05-13T18:44:26.393Z,99337.88
2023-05-13T18:46:53.133Z,99361.78
2023-05-13T18:49:19.714Z,99373.38
2023-05-13T18:51:46.363Z,99383.03
2023-05-13T18:54:12.902Z,99372.59
2023-05-13T18:56:39.605Z,99384.16
2023-05-13T18:59:06.430Z,99392.03
2023-05-13T19:01:33.125Z,99397.69
2023-05-13T19:03:59.917Z,99386.47
2023-05-13T19:06:26.619Z,99403.34
2023-05-13T19:08:53.155Z,99412.16
2023-05-13T19:11:19.753Z,99428.22
2023-05-13T19:13:47.495Z,99421.41
2023-05-13T19:16:14.884Z,99421.63
2023-05-13T19:18:41.699Z,99432.25
2023-05-13T19:21:08.301Z,99439.53
2023-05-13T19:23:35.027Z,99450.13
2023-05-13T19:26:01.781Z,99436.28
2023-05-13T19:28:28.803Z,99471.34
2023-05-13T19:30:55.500Z,99475.94
2023-05-13T19:33:22.036Z,99470.84
2023-05-13T19:35:48.696Z,99478.09
2023-05-13T19:38:15.298Z,99492.13
2023-05-13T19:40:41.841Z,99503.72
2023-05-13T19:43:08.396Z,99494.22
2023-05-13T19:45:35.908Z,99507.47
2023-05-13T19:48:02.686Z,99504.06
2023-05-13T19:50:29.288Z,99515.50
2023-05-13T19:52:56.239Z,99526.25
2023-05-13T19:55:22.810Z,99523.72
2023-05-13T19:57:49.385Z,99532.69
2023-05-13T20:00:16.875Z,99536.38
2023-05-13T20:02:43.596Z,99540.97
2023-05-13T20:05:10.370Z,99549.00
2023-05-13T20:07:36.923Z,99551.81
2023-05-13T20:10:04.192Z,99554.59
2023-05-13T20:12:30.799Z,99566.16
2023-05-13T20:14:58.740Z,99566.31
2023-05-13T20:17:25.760Z,99571.63
2023-05-13T20:19:54.282Z,99599.78
2023-05-13T20:22:21.047Z,99608.72
2023-05-13T20:24:48.745Z,99601.84
2023-05-13T20:27:16.451Z,99609.84
2023-05-13T20:29:43.970Z,99601.16
2023-05-13T20:32:10.704Z,99607.31
2023-05-13T20:34:37.546Z,99608.34
2023-05-13T20:37:05.252Z,99605.78
2023-05-13T20:39:31.966Z,99606.72
2023-05-13T20:41:58.559Z,99600.63
2023-05-13T20:44:25.530Z,99603.34
2023-05-13T20:46:52.477Z,99613.88
2023-05-13T20:49:19.009Z,99605.22
2023-05-13T20:51:47.316Z,99628.03
2023-05-13T20:54:14.081Z,99615.88
2023-05-13T20:56:40.685Z,99620.31
2023-05-13T20:59:07.859Z,99647.41
2023-05-13T21:01:35.116Z,99653.75
2023-05-13T21:04:04.063Z,99667.16
2023-05-13T21:06:30.667Z,99659.63
2023-05-13T21:08:57.233Z,99656.34
2023-05-13T21:11:23.814Z,99691.47
2023-05-13T21:13:50.437Z,99675.16
2023-05-13T21:16:17.056Z,99670.00
2023-05-13T21:18:43.698Z,99699.69
2023-05-13T21:21:12.507Z,99713.88
2023-05-13T21:23:40.755Z,99723.66
2023-05-13T21:26:07.529Z,99763.00
2023-05-13T21:28:34.165Z,99783.19
2023-05-13T21:31:00.884Z,99773.72
2023-05-13T21:33:27.777Z,99764.38
2023-05-13T21:35:54.579Z,99753.19
2023-05-13T21:38:21.233Z,99767.34
2023-05-13T21:40:47.816Z,99772.75
2023-05-13T21:43:14.450Z,99786.84
2023-05-13T21:45:41.060Z,99786.97
2023-05-13T21:48:08.094Z,99821.13
2023-05-13T21:50:35.294Z,99815.19
2023-05-13T21:53:01.823Z,99807.56
2023-05-13T21:55:28.366Z,99818.97
2023-05-13T21:57:55.043Z,99817.38
2023-05-13T22:00:21.885Z,99820.13
2023-05-13T22:02:50.188Z,99840.28
2023-05-13T22:05:17.115Z,99845.47
2023-05-13T22:07:43.697Z,99872.69
2023-05-13T22:10:11.442Z,99882.34
2023-05-13T22:12:38.043Z,99894.69
2023-05-13T22:15:04.788Z,99905.28
2023-05-13T22:17:33.119Z,99889.69
2023-05-13T22:19:59.871Z,99893.38
2023-05-13T22:22:26.424Z,99902.16
2023-05-13T22:24:52.958Z,99900.50
2023-05-13T22:27:19.607Z,99905.78
2023-05-13T22:29:46.266Z,99904.97
2023-05-13T22:32:12.924Z,99909.34
2023-05-13T22:34:39.525Z,99919.91
2023-05-13T22:37:06.837Z,99921.72
2023-05-13T22:39:33.392Z,99919.13
2023-05-13T22:42:00.048Z,99929.63
2023-05-13T22:44:26.646Z,99925.41
2023-05-13T22:46:54.167Z,99924.63
2023-05-13T22:49:20.950Z,99919.44
2023-05-13T22:51:47.953Z,99942.09
2023-05-13T22:54:14.535Z,99962.19
2023-05-13T22:56:41.079Z,99965.81
2023-05-13T22:59:07.642Z,99954.53
2023-05-13T23:01:34.230Z,99960.69
2023-05-13T23:04:00.897Z,99942.47
2023-05-13T23:06:27.540Z,99971.16
2023-05-13T23:08:54.097Z,99986.97
2023-05-13T23:11:21.403Z,99981.00
2023-05-13T23:13:47.985Z,99987.13
2023-05-13T23:16:14.699Z,99988.13
2023-05-13T23:18:41.323Z,100000.34
2023-05-13T23:21:09.242Z,100028.25
2023-05-13T23:23:35.933Z,100022.28
2023-05-13T23:26:04.247Z,100027.56
2023-05-13T23:28:30.890Z,100046.78
2023-05-13T23:30:57.602Z,100055.53
2023-05-13T23:33:24.141Z,100046.91
2023-05-13T23:35:54.316Z,100095.50
2023-05-13T23:38:21.386Z,100092.16
2023-05-13T23:40:48.208Z,100100.84
2023-05-13T23:43:14.953Z,100091.41
2023-05-13T23:45:41.612Z,100127.06
2023-05-13T23:48:08.278Z,100120.13
2023-05-13T23:50:34.911Z,100129.72
2023-05-13T23:53:01.482Z,100156.66
2023-05-13T23:55:28.065Z,100147.13
2023-05-13T23:57:55.267Z,100135.00
